sensor_id;sensor_type;location;lat;lon;timestamp;temperature;humidity
54431;DHT22;40342;52.998;5.862;2024-01-25T00:00:20;6.40;99.90
54431;DHT22;40342;52.998;5.862;2024-01-25T00:02:45;6.40;99.90
54431;DHT22;40342;52.998;5.862;2024-01-25T00:05:11;6.30;99.90
54431;DHT22;40342;52.998;5.862;2024-01-25T00:07:48;6.30;99.90
54431;DHT22;40342;52.998;5.862;2024-01-25T00:10:14;6.20;99.90
54431;DHT22;40342;52.998;5.862;2024-01-25T00:12:40;6.20;99.90
54431;DHT22;40342;52.998;5.862;2024-01-25T00:15:06;6.10;99.90
54431;DHT22;40342;52.998;5.862;2024-01-25T00:17:32;6.10;99.90
54431;DHT22;40342;52.998;5.862;2024-01-25T00:19:58;6.10;99.90
54431;DHT22;40342;52.998;5.862;2024-01-25T00:22:23;6.00;99.90
54431;DHT22;40342;52.998;5.862;2024-01-25T00:24:49;6.00;99.90
54431;DHT22;40342;52.998;5.862;2024-01-25T00:27:14;6.00;99.90
54431;DHT22;40342;52.998;5.862;2024-01-25T00:29:40;5.90;99.90
54431;DHT22;40342;52.998;5.862;2024-01-25T00:32:06;5.90;99.90
54431;DHT22;40342;52.998;5.862;2024-01-25T00:34:32;5.90;99.90
54431;DHT22;40342;52.998;5.862;2024-01-25T00:36:57;5.90;99.90
54431;DHT22;40342;52.998;5.862;2024-01-25T00:39:23;5.90;99.90
54431;DHT22;40342;52.998;5.862;2024-01-25T00:41:51;5.90;99.90
54431;DHT22;40342;52.998;5.862;2024-01-25T00:44:17;6.00;99.90
54431;DHT22;40342;52.998;5.862;2024-01-25T00:46:43;6.00;99.90
54431;DHT22;40342;52.998;5.862;2024-01-25T00:49:13;6.00;99.90
54431;DHT22;40342;52.998;5.862;2024-01-25T00:51:41;6.10;99.90
54431;DHT22;40342;52.998;5.862;2024-01-25T00:54:08;6.10;99.90
54431;DHT22;40342;52.998;5.862;2024-01-25T00:56:34;6.10;99.90
54431;DHT22;40342;52.998;5.862;2024-01-25T00:59:00;6.10;99.90
54431;DHT22;40342;52.998;5.862;2024-01-25T01:01:26;6.20;99.90
54431;DHT22;40342;52.998;5.862;2024-01-25T01:03:52;6.20;99.90
54431;DHT22;40342;52.998;5.862;2024-01-25T01:06:22;6.20;99.90
54431;DHT22;40342;52.998;5.862;2024-01-25T01:08:48;6.20;99.90
54431;DHT22;40342;52.998;5.862;2024-01-25T01:11:14;6.10;99.90
54431;DHT22;40342;52.998;5.862;2024-01-25T01:13:39;6.10;99.90
54431;DHT22;40342;52.998;5.862;2024-01-25T01:16:05;6.10;99.90
54431;DHT22;40342;52.998;5.862;2024-01-25T01:18:31;6.10;99.90
54431;DHT22;40342;52.998;5.862;2024-01-25T01:20:56;6.10;99.90
54431;DHT22;40342;52.998;5.862;2024-01-25T01:23:22;6.00;99.90
54431;DHT22;40342;52.998;5.862;2024-01-25T01:25:48;6.00;99.90
54431;DHT22;40342;52.998;5.862;2024-01-25T01:28:13;6.00;99.90
54431;DHT22;40342;52.998;5.862;2024-01-25T01:30:39;5.90;99.90
54431;DHT22;40342;52.998;5.862;2024-01-25T01:33:10;5.90;99.90
54431;DHT22;40342;52.998;5.862;2024-01-25T01:35:36;5.90;99.90
54431;DHT22;40342;52.998;5.862;2024-01-25T01:38:02;5.80;99.90
54431;DHT22;40342;52.998;5.862;2024-01-25T01:40:27;5.80;99.90
54431;DHT22;40342;52.998;5.862;2024-01-25T01:43:00;5.80;99.90
54431;DHT22;40342;52.998;5.862;2024-01-25T01:45:26;5.70;99.90
54431;DHT22;40342;52.998;5.862;2024-01-25T01:47:53;5.80;99.90
54431;DHT22;40342;52.998;5.862;2024-01-25T01:50:18;5.80;99.90
54431;DHT22;40342;52.998;5.862;2024-01-25T01:52:45;5.80;99.90
54431;DHT22;40342;52.998;5.862;2024-01-25T01:55:12;5.80;99.90
54431;DHT22;40342;52.998;5.862;2024-01-25T01:57:38;5.80;99.90
54431;DHT22;40342;52.998;5.862;2024-01-25T02:00:07;5.80;99.90
54431;DHT22;40342;52.998;5.862;2024-01-25T02:02:33;5.80;99.90
54431;DHT22;40342;52.998;5.862;2024-01-25T02:04:59;5.80;99.90
54431;DHT22;40342;52.998;5.862;2024-01-25T02:07:25;5.80;99.90
54431;DHT22;40342;52.998;5.862;2024-01-25T02:09:51;5.70;99.90
54431;DHT22;40342;52.998;5.862;2024-01-25T02:12:17;5.70;99.90
54431;DHT22;40342;52.998;5.862;2024-01-25T02:14:42;5.70;99.90
54431;DHT22;40342;52.998;5.862;2024-01-25T02:17:08;5.70;99.90
54431;DHT22;40342;52.998;5.862;2024-01-25T02:19:34;5.70;99.90
54431;DHT22;40342;52.998;5.862;2024-01-25T02:21:59;5.70;99.90
54431;DHT22;40342;52.998;5.862;2024-01-25T02:24:26;5.60;99.90
54431;DHT22;40342;52.998;5.862;2024-01-25T02:26:52;5.60;99.90
54431;DHT22;40342;52.998;5.862;2024-01-25T02:29:17;5.60;99.90
54431;DHT22;40342;52.998;5.862;2024-01-25T02:31:43;5.60;99.90
54431;DHT22;40342;52.998;5.862;2024-01-25T02:34:08;5.50;99.90
54431;DHT22;40342;52.998;5.862;2024-01-25T02:36:34;5.50;99.90
54431;DHT22;40342;52.998;5.862;2024-01-25T02:39:00;5.60;99.90
54431;DHT22;40342;52.998;5.862;2024-01-25T02:41:28;5.50;99.90
54431;DHT22;40342;52.998;5.862;2024-01-25T02:43:54;5.50;99.90
54431;DHT22;40342;52.998;5.862;2024-01-25T02:46:19;5.50;99.90
54431;DHT22;40342;52.998;5.862;2024-01-25T02:48:45;5.40;99.90
54431;DHT22;40342;52.998;5.862;2024-01-25T02:51:10;5.40;99.90
54431;DHT22;40342;52.998;5.862;2024-01-25T02:53:36;5.40;99.90
54431;DHT22;40342;52.998;5.862;2024-01-25T02:56:02;5.40;99.90
54431;DHT22;40342;52.998;5.862;2024-01-25T02:58:27;5.40;99.90
54431;DHT22;40342;52.998;5.862;2024-01-25T03:00:53;5.40;99.90
54431;DHT22;40342;52.998;5.862;2024-01-25T03:03:18;5.30;99.90
54431;DHT22;40342;52.998;5.862;2024-01-25T03:05:45;5.30;99.90
54431;DHT22;40342;52.998;5.862;2024-01-25T03:08:10;5.30;99.90
54431;DHT22;40342;52.998;5.862;2024-01-25T03:10:36;5.30;99.90
54431;DHT22;40342;52.998;5.862;2024-01-25T03:13:01;5.30;99.90
54431;DHT22;40342;52.998;5.862;2024-01-25T03:15:27;5.20;99.90
54431;DHT22;40342;52.998;5.862;2024-01-25T03:17:53;5.20;99.90
54431;DHT22;40342;52.998;5.862;2024-01-25T03:20:18;5.20;99.90
54431;DHT22;40342;52.998;5.862;2024-01-25T03:22:44;5.10;99.90
54431;DHT22;40342;52.998;5.862;2024-01-25T03:25:10;5.10;99.90
54431;DHT22;40342;52.998;5.862;2024-01-25T03:27:36;5.10;99.90
54431;DHT22;40342;52.998;5.862;2024-01-25T03:30:01;5.10;99.90
54431;DHT22;40342;52.998;5.862;2024-01-25T03:32:27;5.10;99.90
54431;DHT22;40342;52.998;5.862;2024-01-25T03:34:52;5.10;99.90
54431;DHT22;40342;52.998;5.862;2024-01-25T03:37:18;5.00;99.90
54431;DHT22;40342;52.998;5.862;2024-01-25T03:39:44;5.00;99.90
54431;DHT22;40342;52.998;5.862;2024-01-25T03:42:09;5.00;99.90
54431;DHT22;40342;52.998;5.862;2024-01-25T03:44:35;5.00;99.90
54431;DHT22;40342;52.998;5.862;2024-01-25T03:47:00;4.90;99.90
54431;DHT22;40342;52.998;5.862;2024-01-25T03:49:27;4.90;99.90
54431;DHT22;40342;52.998;5.862;2024-01-25T03:51:52;4.90;99.90
54431;DHT22;40342;52.998;5.862;2024-01-25T03:54:18;4.90;99.90
54431;DHT22;40342;52.998;5.862;2024-01-25T03:56:44;4.80;99.90
54431;DHT22;40342;52.998;5.862;2024-01-25T03:59:09;4.80;99.90
54431;DHT22;40342;52.998;5.862;2024-01-25T04:01:41;4.80;99.90
54431;DHT22;40342;52.998;5.862;2024-01-25T04:04:07;4.70;99.90
54431;DHT22;40342;52.998;5.862;2024-01-25T04:06:42;4.80;99.90
54431;DHT22;40342;52.998;5.862;2024-01-25T04:09:08;4.70;99.90
54431;DHT22;40342;52.998;5.862;2024-01-25T04:11:35;4.70;99.90
54431;DHT22;40342;52.998;5.862;2024-01-25T04:14:01;4.70;99.90
54431;DHT22;40342;52.998;5.862;2024-01-25T04:16:26;4.60;99.90
54431;DHT22;40342;52.998;5.862;2024-01-25T04:18:53;4.60;99.90
54431;DHT22;40342;52.998;5.862;2024-01-25T04:21:18;4.70;99.90
54431;DHT22;40342;52.998;5.862;2024-01-25T04:23:44;4.60;99.90
54431;DHT22;40342;52.998;5.862;2024-01-25T04:26:09;4.60;99.90
54431;DHT22;40342;52.998;5.862;2024-01-25T04:28:35;4.60;99.90
54431;DHT22;40342;52.998;5.862;2024-01-25T04:31:02;4.60;99.90
54431;DHT22;40342;52.998;5.862;2024-01-25T04:33:29;4.60;99.90
54431;DHT22;40342;52.998;5.862;2024-01-25T04:35:54;4.50;99.90
54431;DHT22;40342;52.998;5.862;2024-01-25T04:38:21;4.50;99.90
54431;DHT22;40342;52.998;5.862;2024-01-25T04:40:47;4.50;99.90
54431;DHT22;40342;52.998;5.862;2024-01-25T04:43:12;4.40;99.90
54431;DHT22;40342;52.998;5.862;2024-01-25T04:45:39;4.50;99.90
54431;DHT22;40342;52.998;5.862;2024-01-25T04:48:05;4.40;99.90
54431;DHT22;40342;52.998;5.862;2024-01-25T04:50:31;4.40;99.90
54431;DHT22;40342;52.998;5.862;2024-01-25T04:52:57;4.40;99.90
54431;DHT22;40342;52.998;5.862;2024-01-25T04:55:22;4.30;99.90
54431;DHT22;40342;52.998;5.862;2024-01-25T04:57:48;4.30;99.90
54431;DHT22;40342;52.998;5.862;2024-01-25T05:00:17;4.30;99.90
54431;DHT22;40342;52.998;5.862;2024-01-25T05:02:42;4.30;99.90
54431;DHT22;40342;52.998;5.862;2024-01-25T05:05:08;4.20;99.90
54431;DHT22;40342;52.998;5.862;2024-01-25T05:07:34;4.20;99.90
54431;DHT22;40342;52.998;5.862;2024-01-25T05:09:59;4.10;99.90
54431;DHT22;40342;52.998;5.862;2024-01-25T05:12:25;4.00;99.90
54431;DHT22;40342;52.998;5.862;2024-01-25T05:14:50;4.00;99.90
54431;DHT22;40342;52.998;5.862;2024-01-25T05:17:16;3.90;99.90
54431;DHT22;40342;52.998;5.862;2024-01-25T05:19:41;3.90;99.90
54431;DHT22;40342;52.998;5.862;2024-01-25T05:22:07;3.80;99.90
54431;DHT22;40342;52.998;5.862;2024-01-25T05:24:33;3.80;99.90
54431;DHT22;40342;52.998;5.862;2024-01-25T05:26:59;3.70;99.90
54431;DHT22;40342;52.998;5.862;2024-01-25T05:29:25;3.70;99.90
54431;DHT22;40342;52.998;5.862;2024-01-25T05:31:50;3.60;99.90
54431;DHT22;40342;52.998;5.862;2024-01-25T05:34:16;3.60;99.90
54431;DHT22;40342;52.998;5.862;2024-01-25T05:36:41;3.60;99.90
54431;DHT22;40342;52.998;5.862;2024-01-25T05:39:07;3.60;99.90
54431;DHT22;40342;52.998;5.862;2024-01-25T05:41:33;3.50;99.90
54431;DHT22;40342;52.998;5.862;2024-01-25T05:43:59;3.50;99.90
54431;DHT22;40342;52.998;5.862;2024-01-25T05:46:25;3.50;99.90
54431;DHT22;40342;52.998;5.862;2024-01-25T05:48:51;3.60;99.90
54431;DHT22;40342;52.998;5.862;2024-01-25T05:51:17;3.60;99.90
54431;DHT22;40342;52.998;5.862;2024-01-25T05:53:43;3.60;99.90
54431;DHT22;40342;52.998;5.862;2024-01-25T05:56:09;3.60;99.90
54431;DHT22;40342;52.998;5.862;2024-01-25T05:58:34;3.60;99.90
54431;DHT22;40342;52.998;5.862;2024-01-25T06:01:00;3.60;99.90
54431;DHT22;40342;52.998;5.862;2024-01-25T06:03:25;3.60;99.90
54431;DHT22;40342;52.998;5.862;2024-01-25T06:05:51;3.50;99.90
54431;DHT22;40342;52.998;5.862;2024-01-25T06:08:17;3.50;99.90
54431;DHT22;40342;52.998;5.862;2024-01-25T06:10:42;3.50;99.90
54431;DHT22;40342;52.998;5.862;2024-01-25T06:13:08;3.50;99.90
54431;DHT22;40342;52.998;5.862;2024-01-25T06:15:34;3.40;99.90
54431;DHT22;40342;52.998;5.862;2024-01-25T06:18:00;3.40;99.90
54431;DHT22;40342;52.998;5.862;2024-01-25T06:20:26;3.30;99.90
54431;DHT22;40342;52.998;5.862;2024-01-25T06:22:51;3.30;99.90
54431;DHT22;40342;52.998;5.862;2024-01-25T06:25:17;3.30;99.90
54431;DHT22;40342;52.998;5.862;2024-01-25T06:27:42;3.30;99.90
54431;DHT22;40342;52.998;5.862;2024-01-25T06:30:09;3.20;99.90
54431;DHT22;40342;52.998;5.862;2024-01-25T06:32:35;3.20;99.90
54431;DHT22;40342;52.998;5.862;2024-01-25T06:35:00;3.20;99.90
54431;DHT22;40342;52.998;5.862;2024-01-25T06:37:26;3.20;99.90
54431;DHT22;40342;52.998;5.862;2024-01-25T06:39:52;3.20;99.90
54431;DHT22;40342;52.998;5.862;2024-01-25T06:42:17;3.20;99.90
54431;DHT22;40342;52.998;5.862;2024-01-25T06:44:44;3.20;99.90
54431;DHT22;40342;52.998;5.862;2024-01-25T06:47:09;3.20;99.90
54431;DHT22;40342;52.998;5.862;2024-01-25T06:49:35;3.20;99.90
54431;DHT22;40342;52.998;5.862;2024-01-25T06:52:01;3.10;99.90
54431;DHT22;40342;52.998;5.862;2024-01-25T06:54:27;3.10;99.90
54431;DHT22;40342;52.998;5.862;2024-01-25T06:56:52;3.00;99.90
54431;DHT22;40342;52.998;5.862;2024-01-25T06:59:18;3.00;99.90
54431;DHT22;40342;52.998;5.862;2024-01-25T07:01:43;3.00;99.90
54431;DHT22;40342;52.998;5.862;2024-01-25T07:04:09;3.00;99.90
54431;DHT22;40342;52.998;5.862;2024-01-25T07:06:35;3.00;99.90
54431;DHT22;40342;52.998;5.862;2024-01-25T07:09:00;3.10;99.90
54431;DHT22;40342;52.998;5.862;2024-01-25T07:11:26;3.10;99.90
54431;DHT22;40342;52.998;5.862;2024-01-25T07:13:52;3.20;99.90
54431;DHT22;40342;52.998;5.862;2024-01-25T07:16:17;3.30;99.90
54431;DHT22;40342;52.998;5.862;2024-01-25T07:18:44;3.30;99.90
54431;DHT22;40342;52.998;5.862;2024-01-25T07:21:10;3.30;99.90
54431;DHT22;40342;52.998;5.862;2024-01-25T07:23:36;3.30;99.90
54431;DHT22;40342;52.998;5.862;2024-01-25T07:26:01;3.30;99.90
54431;DHT22;40342;52.998;5.862;2024-01-25T07:28:27;3.20;99.90
54431;DHT22;40342;52.998;5.862;2024-01-25T07:30:53;3.20;99.90
54431;DHT22;40342;52.998;5.862;2024-01-25T07:33:18;3.10;99.90
54431;DHT22;40342;52.998;5.862;2024-01-25T07:35:44;3.10;99.90
54431;DHT22;40342;52.998;5.862;2024-01-25T07:38:16;3.10;99.90
54431;DHT22;40342;52.998;5.862;2024-01-25T07:40:42;3.10;99.90
54431;DHT22;40342;52.998;5.862;2024-01-25T07:43:07;3.20;99.90
54431;DHT22;40342;52.998;5.862;2024-01-25T07:45:33;3.20;99.90
54431;DHT22;40342;52.998;5.862;2024-01-25T07:47:59;3.20;99.90
54431;DHT22;40342;52.998;5.862;2024-01-25T07:50:24;3.20;99.90
54431;DHT22;40342;52.998;5.862;2024-01-25T07:52:50;3.20;99.90
54431;DHT22;40342;52.998;5.862;2024-01-25T07:55:16;3.20;99.90
54431;DHT22;40342;52.998;5.862;2024-01-25T07:57:42;3.30;99.90
54431;DHT22;40342;52.998;5.862;2024-01-25T08:00:08;3.30;99.90
54431;DHT22;40342;52.998;5.862;2024-01-25T08:02:37;3.40;99.90
54431;DHT22;40342;52.998;5.862;2024-01-25T08:05:05;3.40;99.90
54431;DHT22;40342;52.998;5.862;2024-01-25T08:07:31;3.40;99.90
54431;DHT22;40342;52.998;5.862;2024-01-25T08:09:58;3.40;99.90
54431;DHT22;40342;52.998;5.862;2024-01-25T08:12:24;3.40;99.90
54431;DHT22;40342;52.998;5.862;2024-01-25T08:14:50;3.40;99.90
54431;DHT22;40342;52.998;5.862;2024-01-25T08:17:16;3.40;99.90
54431;DHT22;40342;52.998;5.862;2024-01-25T08:19:41;3.50;99.90
54431;DHT22;40342;52.998;5.862;2024-01-25T08:22:07;3.50;99.90
54431;DHT22;40342;52.998;5.862;2024-01-25T08:24:33;3.50;99.90
54431;DHT22;40342;52.998;5.862;2024-01-25T08:26:58;3.60;99.90
54431;DHT22;40342;52.998;5.862;2024-01-25T08:29:24;3.60;99.90
54431;DHT22;40342;52.998;5.862;2024-01-25T08:31:50;3.70;99.90
54431;DHT22;40342;52.998;5.862;2024-01-25T08:34:15;3.70;99.90
54431;DHT22;40342;52.998;5.862;2024-01-25T08:36:41;3.60;99.90
54431;DHT22;40342;52.998;5.862;2024-01-25T08:39:06;3.60;99.90
54431;DHT22;40342;52.998;5.862;2024-01-25T08:41:34;3.60;99.90
54431;DHT22;40342;52.998;5.862;2024-01-25T08:44:00;3.60;99.90
54431;DHT22;40342;52.998;5.862;2024-01-25T08:46:26;3.60;99.90
54431;DHT22;40342;52.998;5.862;2024-01-25T08:48:52;3.70;99.90
54431;DHT22;40342;52.998;5.862;2024-01-25T08:51:17;3.70;99.90
54431;DHT22;40342;52.998;5.862;2024-01-25T08:53:43;3.70;99.90
54431;DHT22;40342;52.998;5.862;2024-01-25T08:56:09;3.80;99.90
54431;DHT22;40342;52.998;5.862;2024-01-25T08:58:35;3.90;99.90
54431;DHT22;40342;52.998;5.862;2024-01-25T09:01:00;3.90;99.90
54431;DHT22;40342;52.998;5.862;2024-01-25T09:03:26;4.00;99.90
54431;DHT22;40342;52.998;5.862;2024-01-25T09:05:52;4.10;99.90
54431;DHT22;40342;52.998;5.862;2024-01-25T09:08:18;4.20;99.90
54431;DHT22;40342;52.998;5.862;2024-01-25T09:10:43;4.30;99.90
54431;DHT22;40342;52.998;5.862;2024-01-25T09:13:10;4.30;99.90
54431;DHT22;40342;52.998;5.862;2024-01-25T09:15:36;4.40;99.90
54431;DHT22;40342;52.998;5.862;2024-01-25T09:18:02;4.50;99.90
54431;DHT22;40342;52.998;5.862;2024-01-25T09:20:27;4.50;99.90
54431;DHT22;40342;52.998;5.862;2024-01-25T09:22:53;4.60;99.90
54431;DHT22;40342;52.998;5.862;2024-01-25T09:25:22;4.60;99.90
54431;DHT22;40342;52.998;5.862;2024-01-25T09:27:47;4.70;99.90
54431;DHT22;40342;52.998;5.862;2024-01-25T09:30:13;4.80;99.90
54431;DHT22;40342;52.998;5.862;2024-01-25T09:32:39;4.80;99.90
54431;DHT22;40342;52.998;5.862;2024-01-25T09:35:05;4.90;99.90
54431;DHT22;40342;52.998;5.862;2024-01-25T09:37:31;4.90;99.90
54431;DHT22;40342;52.998;5.862;2024-01-25T09:39:57;4.90;99.90
54431;DHT22;40342;52.998;5.862;2024-01-25T09:42:24;5.00;99.90
54431;DHT22;40342;52.998;5.862;2024-01-25T09:44:52;5.00;99.90
54431;DHT22;40342;52.998;5.862;2024-01-25T09:47:19;5.10;99.90
54431;DHT22;40342;52.998;5.862;2024-01-25T09:49:46;5.20;99.90
54431;DHT22;40342;52.998;5.862;2024-01-25T09:52:13;5.20;99.90
54431;DHT22;40342;52.998;5.862;2024-01-25T09:54:39;5.30;99.90
54431;DHT22;40342;52.998;5.862;2024-01-25T09:57:15;5.40;99.90
54431;DHT22;40342;52.998;5.862;2024-01-25T09:59:44;5.40;99.90
54431;DHT22;40342;52.998;5.862;2024-01-25T10:02:11;5.50;99.90
54431;DHT22;40342;52.998;5.862;2024-01-25T10:04:37;5.50;99.90
54431;DHT22;40342;52.998;5.862;2024-01-25T10:07:03;5.60;99.90
54431;DHT22;40342;52.998;5.862;2024-01-25T10:09:37;5.60;99.90
54431;DHT22;40342;52.998;5.862;2024-01-25T10:12:03;5.60;99.90
54431;DHT22;40342;52.998;5.862;2024-01-25T10:14:30;5.70;99.90
54431;DHT22;40342;52.998;5.862;2024-01-25T10:16:57;5.70;99.90
54431;DHT22;40342;52.998;5.862;2024-01-25T10:19:23;5.80;99.90
54431;DHT22;40342;52.998;5.862;2024-01-25T10:21:49;5.80;99.90
54431;DHT22;40342;52.998;5.862;2024-01-25T10:24:15;5.80;99.90
54431;DHT22;40342;52.998;5.862;2024-01-25T10:26:41;5.80;99.90
54431;DHT22;40342;52.998;5.862;2024-01-25T10:29:08;5.90;99.90
54431;DHT22;40342;52.998;5.862;2024-01-25T10:31:38;5.90;99.90
54431;DHT22;40342;52.998;5.862;2024-01-25T10:34:06;6.00;99.90
54431;DHT22;40342;52.998;5.862;2024-01-25T10:36:33;6.10;99.90
54431;DHT22;40342;52.998;5.862;2024-01-25T10:38:59;6.00;99.90
54431;DHT22;40342;52.998;5.862;2024-01-25T10:41:31;6.10;99.90
54431;DHT22;40342;52.998;5.862;2024-01-25T10:43:57;6.10;99.90
54431;DHT22;40342;52.998;5.862;2024-01-25T10:46:24;6.10;99.90
54431;DHT22;40342;52.998;5.862;2024-01-25T10:48:51;6.00;99.90
54431;DHT22;40342;52.998;5.862;2024-01-25T10:51:17;6.00;99.90
54431;DHT22;40342;52.998;5.862;2024-01-25T10:53:44;6.00;99.90
54431;DHT22;40342;52.998;5.862;2024-01-25T10:56:10;6.10;99.90
54431;DHT22;40342;52.998;5.862;2024-01-25T10:58:36;6.20;99.90
54431;DHT22;40342;52.998;5.862;2024-01-25T11:01:09;6.20;99.90
54431;DHT22;40342;52.998;5.862;2024-01-25T11:03:39;6.20;99.90
54431;DHT22;40342;52.998;5.862;2024-01-25T11:06:10;6.20;99.90
54431;DHT22;40342;52.998;5.862;2024-01-25T11:08:37;6.20;99.90
54431;DHT22;40342;52.998;5.862;2024-01-25T11:11:06;6.20;99.90
54431;DHT22;40342;52.998;5.862;2024-01-25T11:13:35;6.30;99.90
54431;DHT22;40342;52.998;5.862;2024-01-25T11:16:18;6.30;99.90
54431;DHT22;40342;52.998;5.862;2024-01-25T11:18:51;6.40;99.90
54431;DHT22;40342;52.998;5.862;2024-01-25T11:21:43;6.50;99.90
54431;DHT22;40342;52.998;5.862;2024-01-25T11:24:29;6.60;99.90
54431;DHT22;40342;52.998;5.862;2024-01-25T11:26:56;6.70;99.90
54431;DHT22;40342;52.998;5.862;2024-01-25T11:29:22;6.70;99.90
54431;DHT22;40342;52.998;5.862;2024-01-25T11:31:50;6.70;99.90
54431;DHT22;40342;52.998;5.862;2024-01-25T11:34:16;6.70;99.90
54431;DHT22;40342;52.998;5.862;2024-01-25T11:36:44;6.60;99.90
54431;DHT22;40342;52.998;5.862;2024-01-25T11:39:10;6.60;99.90
54431;DHT22;40342;52.998;5.862;2024-01-25T11:41:36;6.60;99.90
54431;DHT22;40342;52.998;5.862;2024-01-25T11:44:02;6.60;99.90
54431;DHT22;40342;52.998;5.862;2024-01-25T11:46:31;6.60;99.90
54431;DHT22;40342;52.998;5.862;2024-01-25T11:49:00;6.60;99.90
54431;DHT22;40342;52.998;5.862;2024-01-25T11:51:26;6.60;99.90
54431;DHT22;40342;52.998;5.862;2024-01-25T11:53:51;6.60;99.90
54431;DHT22;40342;52.998;5.862;2024-01-25T11:56:20;6.70;99.90
54431;DHT22;40342;52.998;5.862;2024-01-25T11:58:47;6.70;99.90
54431;DHT22;40342;52.998;5.862;2024-01-25T12:01:13;6.80;99.90
54431;DHT22;40342;52.998;5.862;2024-01-25T12:03:40;6.80;99.90
54431;DHT22;40342;52.998;5.862;2024-01-25T12:06:06;6.80;99.90
54431;DHT22;40342;52.998;5.862;2024-01-25T12:08:35;6.80;99.90
54431;DHT22;40342;52.998;5.862;2024-01-25T12:11:08;6.90;99.90
54431;DHT22;40342;52.998;5.862;2024-01-25T12:13:35;6.80;99.90
54431;DHT22;40342;52.998;5.862;2024-01-25T12:16:04;6.90;99.90
54431;DHT22;40342;52.998;5.862;2024-01-25T12:18:30;6.90;99.90
54431;DHT22;40342;52.998;5.862;2024-01-25T12:21:07;7.20;99.90
54431;DHT22;40342;52.998;5.862;2024-01-25T12:23:42;7.30;99.90
54431;DHT22;40342;52.998;5.862;2024-01-25T12:26:10;7.50;99.90
54431;DHT22;40342;52.998;5.862;2024-01-25T12:28:36;7.60;99.90
54431;DHT22;40342;52.998;5.862;2024-01-25T12:31:04;7.70;99.90
54431;DHT22;40342;52.998;5.862;2024-01-25T12:33:30;7.70;99.90
54431;DHT22;40342;52.998;5.862;2024-01-25T12:35:56;7.70;99.90
54431;DHT22;40342;52.998;5.862;2024-01-25T12:38:25;7.60;99.90
54431;DHT22;40342;52.998;5.862;2024-01-25T12:40:52;7.60;99.90
54431;DHT22;40342;52.998;5.862;2024-01-25T12:43:18;7.70;99.90
54431;DHT22;40342;52.998;5.862;2024-01-25T12:45:44;7.60;99.90
54431;DHT22;40342;52.998;5.862;2024-01-25T12:48:10;7.60;99.90
54431;DHT22;40342;52.998;5.862;2024-01-25T12:50:37;7.60;99.90
54431;DHT22;40342;52.998;5.862;2024-01-25T12:53:03;7.70;99.90
54431;DHT22;40342;52.998;5.862;2024-01-25T12:55:29;7.80;99.90
54431;DHT22;40342;52.998;5.862;2024-01-25T12:57:56;7.90;99.90
54431;DHT22;40342;52.998;5.862;2024-01-25T13:00:22;7.90;99.90
54431;DHT22;40342;52.998;5.862;2024-01-25T13:02:48;7.90;99.90
54431;DHT22;40342;52.998;5.862;2024-01-25T13:05:14;7.90;99.90
54431;DHT22;40342;52.998;5.862;2024-01-25T13:07:40;7.90;99.90
54431;DHT22;40342;52.998;5.862;2024-01-25T13:10:08;7.80;99.90
54431;DHT22;40342;52.998;5.862;2024-01-25T13:12:34;7.80;99.90
54431;DHT22;40342;52.998;5.862;2024-01-25T13:14:59;7.90;99.90
54431;DHT22;40342;52.998;5.862;2024-01-25T13:17:25;7.90;99.90
54431;DHT22;40342;52.998;5.862;2024-01-25T13:19:53;7.90;99.90
54431;DHT22;40342;52.998;5.862;2024-01-25T13:22:19;7.90;99.90
54431;DHT22;40342;52.998;5.862;2024-01-25T13:24:46;7.90;99.90
54431;DHT22;40342;52.998;5.862;2024-01-25T13:27:12;7.80;99.90
54431;DHT22;40342;52.998;5.862;2024-01-25T13:29:38;7.90;99.90
54431;DHT22;40342;52.998;5.862;2024-01-25T13:32:03;7.90;99.90
54431;DHT22;40342;52.998;5.862;2024-01-25T13:34:29;7.90;99.90
54431;DHT22;40342;52.998;5.862;2024-01-25T13:36:55;7.80;99.90
54431;DHT22;40342;52.998;5.862;2024-01-25T13:39:20;7.80;99.90
54431;DHT22;40342;52.998;5.862;2024-01-25T13:41:47;7.70;99.90
54431;DHT22;40342;52.998;5.862;2024-01-25T13:44:14;7.70;99.90
54431;DHT22;40342;52.998;5.862;2024-01-25T13:46:40;7.70;99.90
54431;DHT22;40342;52.998;5.862;2024-01-25T13:49:05;7.70;99.90
54431;DHT22;40342;52.998;5.862;2024-01-25T13:51:31;7.70;99.90
54431;DHT22;40342;52.998;5.862;2024-01-25T13:53:56;7.70;99.90
54431;DHT22;40342;52.998;5.862;2024-01-25T13:56:22;7.70;99.90
54431;DHT22;40342;52.998;5.862;2024-01-25T13:58:48;7.60;99.90
54431;DHT22;40342;52.998;5.862;2024-01-25T14:01:13;7.60;99.90
54431;DHT22;40342;52.998;5.862;2024-01-25T14:03:39;7.60;99.90
54431;DHT22;40342;52.998;5.862;2024-01-25T14:06:05;7.50;99.90
54431;DHT22;40342;52.998;5.862;2024-01-25T14:08:33;7.50;99.90
54431;DHT22;40342;52.998;5.862;2024-01-25T14:10:59;7.50;99.90
54431;DHT22;40342;52.998;5.862;2024-01-25T14:13:24;7.50;99.90
54431;DHT22;40342;52.998;5.862;2024-01-25T14:15:50;7.40;99.90
54431;DHT22;40342;52.998;5.862;2024-01-25T14:18:16;7.40;99.90
54431;DHT22;40342;52.998;5.862;2024-01-25T14:20:41;7.50;99.90
54431;DHT22;40342;52.998;5.862;2024-01-25T14:23:07;7.50;99.90
54431;DHT22;40342;52.998;5.862;2024-01-25T14:25:33;7.40;99.90
54431;DHT22;40342;52.998;5.862;2024-01-25T14:27:58;7.50;99.90
54431;DHT22;40342;52.998;5.862;2024-01-25T14:30:24;7.50;99.90
54431;DHT22;40342;52.998;5.862;2024-01-25T14:32:50;7.40;99.90
54431;DHT22;40342;52.998;5.862;2024-01-25T14:35:15;7.40;99.90
54431;DHT22;40342;52.998;5.862;2024-01-25T14:37:41;7.40;99.90
54431;DHT22;40342;52.998;5.862;2024-01-25T14:40:07;7.40;99.90
54431;DHT22;40342;52.998;5.862;2024-01-25T14:42:33;7.40;99.90
54431;DHT22;40342;52.998;5.862;2024-01-25T14:44:58;7.40;99.90
54431;DHT22;40342;52.998;5.862;2024-01-25T14:47:24;7.40;99.90
54431;DHT22;40342;52.998;5.862;2024-01-25T14:49:49;7.40;99.90
54431;DHT22;40342;52.998;5.862;2024-01-25T14:52:17;7.40;99.90
54431;DHT22;40342;52.998;5.862;2024-01-25T14:54:43;7.50;99.90
54431;DHT22;40342;52.998;5.862;2024-01-25T14:57:09;7.40;99.90
54431;DHT22;40342;52.998;5.862;2024-01-25T14:59:34;7.30;99.90
54431;DHT22;40342;52.998;5.862;2024-01-25T15:02:00;7.40;99.90
54431;DHT22;40342;52.998;5.862;2024-01-25T15:04:26;7.40;99.90
54431;DHT22;40342;52.998;5.862;2024-01-25T15:06:55;7.40;99.90
54431;DHT22;40342;52.998;5.862;2024-01-25T15:09:21;7.40;99.90
54431;DHT22;40342;52.998;5.862;2024-01-25T15:11:46;7.40;99.90
54431;DHT22;40342;52.998;5.862;2024-01-25T15:14:13;7.30;99.90
54431;DHT22;40342;52.998;5.862;2024-01-25T15:16:39;7.30;99.90
54431;DHT22;40342;52.998;5.862;2024-01-25T15:19:06;7.30;99.90
54431;DHT22;40342;52.998;5.862;2024-01-25T15:21:31;7.30;99.90
54431;DHT22;40342;52.998;5.862;2024-01-25T15:23:57;7.30;99.90
54431;DHT22;40342;52.998;5.862;2024-01-25T15:26:23;7.30;99.90
54431;DHT22;40342;52.998;5.862;2024-01-25T15:28:48;7.30;99.90
54431;DHT22;40342;52.998;5.862;2024-01-25T15:31:15;7.30;99.90
54431;DHT22;40342;52.998;5.862;2024-01-25T15:33:41;7.20;99.90
54431;DHT22;40342;52.998;5.862;2024-01-25T15:36:07;7.20;99.90
54431;DHT22;40342;52.998;5.862;2024-01-25T15:38:32;7.20;99.90